Time;durP1;ratioP1;P1;durP2;ratioP2;P2;SDS_P1;SDS_P2;PMS_P1;PMS_P2;Temp;Humidity;BMP_temperature;BMP_pressure;BME280_temperature;BME280_humidity;BME280_pressure;Samples;Min_cycle;Max_cycle;Signal;HPM_P1;HPM_P2
2022/09/08 00:02:47;;;;;;;15.93;11.60;;;;;;;18.38;97.77;99840.81;2842843;82;21035;-89
2022/09/08 00:06:48;;;;;;;14.87;11.65;;;;;;;18.40;97.69;99840.63;2855744;82;21001;-89
2022/09/08 00:10:53;;;;;;;15.23;11.90;;;;;;;18.32;98.46;99836.19;2836230;82;21398;-89
2022/09/08 00:14:56;;;;;;;14.70;12.63;;;;;;;18.35;97.68;99825.53;2857888;82;21024;-89
2022/09/08 00:18:57;;;;;;;14.75;11.08;;;;;;;18.37;97.84;99836.45;2848809;82;21469;-89
2022/09/08 00:22:58;;;;;;;12.40;10.80;;;;;;;18.37;97.41;99836.45;2849031;82;21047;-89
2022/09/08 00:26:59;;;;;;;14.80;11.48;;;;;;;18.22;98.87;99843.70;2846825;82;21056;-90
2022/09/08 00:31:01;;;;;;;14.47;12.78;;;;;;;18.11;99.61;99845.86;2836899;82;21140;-89
2022/09/08 00:35:07;;;;;;;16.87;13.22;;;;;;;17.93;100.00;99850.74;2811071;82;21079;-89
2022/09/08 00:39:06;;;;;;;18.40;13.48;;;;;;;17.97;100.00;99848.81;2836390;82;21060;-89
2022/09/08 00:43:08;;;;;;;16.87;13.68;;;;;;;17.99;100.00;99839.23;2842171;82;21092;-89
2022/09/08 00:47:24;;;;;;;15.20;12.30;;;;;;;18.13;100.00;99838.92;2793434;83;21642;-89
2022/09/08 00:51:27;;;;;;;15.20;13.30;;;;;;;18.17;100.00;99829.98;2779071;85;21008;-88
2022/09/08 00:55:37;;;;;;;14.40;12.58;;;;;;;18.20;100.00;99828.25;2766285;84;21525;-88
2022/09/08 00:59:39;;;;;;;18.82;15.18;;;;;;;18.22;100.00;99831.59;2771576;84;21014;-87
2022/09/08 01:03:42;;;;;;;16.67;12.07;;;;;;;18.21;100.00;99836.65;2771287;84;21025;-89
2022/09/08 01:16:48;;;;;;;17.10;14.23;;;;;;;18.34;99.55;99835.48;2750204;84;21114;-90
2022/09/08 01:20:53;;;;;;;19.07;15.32;;;;;;;18.31;99.83;99825.09;2765122;84;21054;-90
2022/09/08 01:25:27;;;;;;;20.57;14.85;;;;;;;18.31;100.00;99829.62;2774117;83;21536;-88
2022/09/08 01:29:29;;;;;;;19.50;15.45;;;;;;;18.30;99.84;99822.08;2770664;84;21058;-90
2022/09/08 01:33:31;;;;;;;21.57;16.05;;;;;;;18.23;100.00;99818.45;2758061;84;21160;-89
2022/09/08 01:37:32;;;;;;;18.87;14.93;;;;;;;18.21;100.00;99815.11;2762559;84;21023;-90
2022/09/08 01:41:33;;;;;;;19.50;14.85;;;;;;;18.18;100.00;99815.00;2771342;84;21097;-89
2022/09/08 01:45:36;;;;;;;21.40;14.73;;;;;;;18.18;100.00;99816.84;2764355;84;21034;-89
2022/09/08 01:49:37;;;;;;;17.80;13.90;;;;;;;18.16;100.00;99810.81;2762869;84;21105;-89
2022/09/08 01:53:39;;;;;;;19.87;14.63;;;;;;;18.13;100.00;99810.66;2735152;84;21523;-89
2022/09/08 01:57:41;;;;;;;15.98;13.35;;;;;;;18.10;100.00;99815.08;2765126;84;22210;-89
2022/09/08 02:01:42;;;;;;;20.17;15.58;;;;;;;18.03;100.00;99813.64;2717249;85;21049;-89
2022/09/08 02:05:44;;;;;;;17.62;14.10;;;;;;;18.00;100.00;99809.95;2793714;84;21581;-88
2022/09/08 02:09:45;;;;;;;16.20;13.40;;;;;;;17.96;100.00;99803.28;2770822;84;21083;-88
2022/09/08 02:13:46;;;;;;;20.57;14.23;;;;;;;17.91;100.00;99805.70;2765465;83;21039;-89
2022/09/08 02:17:48;;;;;;;19.98;17.25;;;;;;;17.84;100.00;99807.77;2778278;85;21052;-88
2022/09/08 02:21:49;;;;;;;22.42;16.23;;;;;;;17.59;100.00;99815.78;2766933;84;21050;-88
2022/09/08 02:25:54;;;;;;;25.55;17.77;;;;;;;17.40;100.00;99813.44;2784579;84;21045;-89
2022/09/08 02:29:55;;;;;;;37.48;20.05;;;;;;;17.25;100.00;99805.33;2763542;85;21066;-88
2022/09/08 02:33:57;;;;;;;34.90;26.23;;;;;;;17.25;100.00;99795.09;2761681;85;22157;-89
2022/09/08 02:37:58;;;;;;;45.75;31.77;;;;;;;17.33;100.00;99788.81;2775707;85;20995;-88
2022/09/08 02:41:59;;;;;;;58.20;37.65;;;;;;;17.43;100.00;99779.96;2782266;84;21047;-88
2022/09/08 02:46:06;;;;;;;33.55;25.75;;;;;;;17.51;100.00;99787.12;2805493;83;21004;-88
2022/09/08 02:50:07;;;;;;;29.67;19.40;;;;;;;17.53;100.00;99788.61;2773045;84;21082;-88
2022/09/08 02:54:08;;;;;;;21.25;16.10;;;;;;;17.59;100.00;99780.82;2850352;82;21040;-89
2022/09/08 02:58:11;;;;;;;22.70;16.60;;;;;;;17.60;100.00;99778.45;2846167;82;21051;-89
2022/09/08 03:02:13;;;;;;;18.85;15.60;;;;;;;17.58;100.00;99773.77;2838165;82;21589;-89
2022/09/08 03:06:16;;;;;;;18.52;14.83;;;;;;;17.53;100.00;99756.84;2814769;82;21056;-89
2022/09/08 03:10:23;;;;;;;18.15;16.23;;;;;;;17.52;100.00;99753.34;2840353;82;21059;-88
2022/09/08 03:14:21;;;;;;;20.17;16.27;;;;;;;17.53;100.00;99756.34;2843690;82;21050;-88
2022/09/08 03:18:23;;;;;;;18.57;16.23;;;;;;;17.51;100.00;99753.02;2807567;83;21025;-88
2022/09/08 03:22:24;;;;;;;35.98;22.40;;;;;;;17.40;100.00;99764.20;2832052;83;21016;-88
2022/09/08 03:26:26;;;;;;;24.47;17.98;;;;;;;17.21;100.00;99763.70;2836179;82;21042;-88
2022/09/08 03:30:27;;;;;;;31.82;22.37;;;;;;;17.07;100.00;99765.84;2842234;83;21008;-88
2022/09/08 03:34:28;;;;;;;42.00;26.20;;;;;;;16.92;100.00;99759.91;2845279;83;21647;-87
2022/09/08 03:38:29;;;;;;;27.40;20.77;;;;;;;16.83;100.00;99760.48;2836628;83;21055;-88
2022/09/08 03:42:35;;;;;;;23.57;18.32;;;;;;;16.77;100.00;99761.70;2827383;83;21041;-88
2022/09/08 03:46:37;;;;;;;27.80;19.98;;;;;;;16.83;100.00;99748.89;2846906;82;21008;-88
2022/09/08 03:50:39;;;;;;;22.58;18.75;;;;;;;16.97;100.00;99747.26;2826974;82;21694;-88
2022/09/08 03:54:50;;;;;;;26.48;20.40;;;;;;;17.08;100.00;99733.92;2725585;85;20996;-88
2022/09/08 03:58:51;;;;;;;28.42;23.50;;;;;;;17.14;100.00;99731.88;2757571;84;21054;-87
2022/09/08 04:02:53;;;;;;;22.40;19.15;;;;;;;17.22;100.00;99735.81;2757340;84;21039;-87
2022/09/08 04:06:54;;;;;;;24.87;17.90;;;;;;;17.16;100.00;99737.90;2717924;85;21047;-88
2022/09/08 04:10:57;;;;;;;26.12;19.55;;;;;;;17.01;100.00;99739.71;2759317;84;21118;-87
2022/09/08 04:14:58;;;;;;;28.75;21.17;;;;;;;16.83;100.00;99731.43;2761964;84;21055;-89
2022/09/08 04:19:00;;;;;;;28.27;23.77;;;;;;;16.80;100.00;99736.67;2760925;84;21031;-89
2022/09/08 04:23:01;;;;;;;37.55;30.12;;;;;;;16.79;100.00;99746.24;2755714;85;21550;-88
2022/09/08 04:27:03;;;;;;;35.33;26.87;;;;;;;16.85;100.00;99742.82;2778255;84;21110;-88
2022/09/08 04:31:07;;;;;;;27.45;22.62;;;;;;;16.76;100.00;99738.02;2721440;86;21043;-89
2022/09/08 04:35:09;;;;;;;28.12;20.20;;;;;;;16.74;100.00;99737.89;2658985;87;21073;-88
2022/09/08 04:39:11;;;;;;;39.33;21.23;;;;;;;16.76;100.00;99739.89;2754102;84;21082;-88
2022/09/08 04:43:12;;;;;;;30.55;22.73;;;;;;;16.86;100.00;99744.49;2764830;84;21047;-89
2022/09/08 04:47:14;;;;;;;43.58;27.00;;;;;;;16.80;100.00;99740.70;2751989;84;21003;-88
2022/09/08 04:51:18;;;;;;;43.25;25.68;;;;;;;17.17;100.00;99746.28;2721926;82;21083;-88
2022/09/08 04:55:19;;;;;;;31.80;22.73;;;;;;;17.33;100.00;99753.88;2799573;83;21033;-88
2022/09/08 04:59:20;;;;;;;47.45;25.02;;;;;;;17.62;100.00;99754.91;2758134;84;21085;-89
2022/09/08 05:03:22;;;;;;;25.10;19.10;;;;;;;17.77;100.00;99759.77;2789975;84;21118;-89
2022/09/08 05:07:24;;;;;;;28.67;21.07;;;;;;;18.20;100.00;99759.61;2739464;86;21037;-88
2022/09/08 05:11:27;;;;;;;30.23;22.98;;;;;;;18.76;100.00;99759.48;2740760;85;21283;-89
2022/09/08 05:15:29;;;;;;;22.65;19.57;;;;;;;18.99;100.00;99744.50;2742186;85;21041;-89
2022/09/08 05:19:31;;;;;;;20.25;17.15;;;;;;;19.10;100.00;99729.13;2717746;86;20994;-89
2022/09/08 05:23:33;;;;;;;19.40;17.45;;;;;;;18.98;100.00;99733.38;2735001;85;21073;-89
2022/09/08 05:27:34;;;;;;;23.20;16.55;;;;;;;19.05;100.00;99725.34;2734833;84;21052;-88
2022/09/08 05:31:35;;;;;;;24.02;16.35;;;;;;;19.47;100.00;99714.65;2794329;82;21381;-88
2022/09/08 05:35:36;;;;;;;18.82;16.15;;;;;;;19.94;97.86;99708.17;2791497;83;21029;-89
2022/09/08 05:39:38;;;;;;;20.55;17.60;;;;;;;20.14;94.06;99703.36;2772580;83;21655;-89
2022/09/08 05:43:40;;;;;;;18.73;16.10;;;;;;;20.24;92.98;99697.88;2773381;84;21045;-89
2022/09/08 05:47:42;;;;;;;22.00;16.30;;;;;;;20.30;92.01;99694.89;2793845;83;21068;-89
2022/09/08 05:51:43;;;;;;;22.27;17.75;;;;;;;20.48;91.52;99699.69;2789623;83;21049;-89
2022/09/08 05:55:55;;;;;;;23.50;17.98;;;;;;;20.57;91.57;99704.91;2758757;83;21610;-89
2022/09/08 05:59:56;;;;;;;18.30;15.98;;;;;;;20.72;90.45;99718.22;2784084;83;21057;-88
2022/09/08 06:03:59;;;;;;;19.05;14.75;;;;;;;21.00;87.78;99703.69;2765664;84;21050;-89
2022/09/08 06:08:01;;;;;;;21.77;15.85;;;;;;;21.17;87.14;99699.52;2768334;83;21042;-87
2022/09/08 06:12:02;;;;;;;23.90;15.70;;;;;;;21.38;86.31;99686.78;2772521;83;21571;-90
2022/09/08 06:16:08;;;;;;;23.38;15.55;;;;;;;21.58;85.43;99693.50;2789433;83;21095;-89
2022/09/08 06:20:10;;;;;;;23.45;15.15;;;;;;;21.53;85.71;99682.50;2758224;83;21126;-89
2022/09/08 06:24:15;;;;;;;17.87;15.72;;;;;;;21.44;84.83;99683.25;2765124;84;21049;-90
2022/09/08 06:28:39;;;;;;;19.67;14.57;;;;;;;21.23;85.41;99687.87;2765631;84;21569;-89
2022/09/08 06:33:01;;;;;;;19.45;15.20;;;;;;;21.07;86.61;99675.61;2753715;83;21062;-90
2022/09/08 06:37:07;;;;;;;18.87;15.03;;;;;;;20.95;88.93;99675.41;2752083;83;21071;-90
2022/09/08 06:41:17;;;;;;;20.30;15.58;;;;;;;20.95;89.55;99673.25;2785389;84;21050;-89
2022/09/08 06:45:35;;;;;;;19.17;15.05;;;;;;;20.93;88.61;99666.69;2773341;83;21069;-90
2022/09/08 06:49:37;;;;;;;19.10;16.62;;;;;;;20.79;88.42;99662.29;2740473;85;24729;-89
2022/09/08 06:53:46;;;;;;;21.23;15.18;;;;;;;20.85;88.49;99668.27;2790390;82;21037;-90
2022/09/08 06:58:03;;;;;;;21.62;16.35;;;;;;;21.05;86.97;99670.12;2807992;83;21022;-89
2022/09/08 07:02:28;;;;;;;21.17;14.75;;;;;;;21.43;86.95;99669.41;2790790;84;21100;-90
2022/09/08 07:06:37;;;;;;;18.35;13.83;;;;;;;21.63;84.90;99664.46;2769631;84;21102;-89
2022/09/08 07:11:24;;;;;;;19.23;16.37;;;;;;;21.94;84.71;99668.30;2827644;82;21103;-90
2022/09/08 07:15:54;;;;;;;18.57;16.02;;;;;;;22.35;82.25;99662.94;2768510;83;21086;-90
2022/09/08 07:19:57;;;;;;;16.95;13.48;;;;;;;22.65;80.38;99651.51;2754749;83;21074;-90
2022/09/08 07:24:01;;;;;;;24.23;15.48;;;;;;;23.00;80.09;99654.76;2729350;83;21068;-90
2022/09/08 07:28:14;;;;;;;17.50;14.33;;;;;;;23.22;78.01;99649.20;2705866;86;21112;-89
2022/09/08 07:32:21;;;;;;;14.43;11.03;;;;;;;23.50;77.73;99651.94;2682258;87;20992;-90
2022/09/08 07:36:47;;;;;;;16.95;15.05;;;;;;;23.73;77.73;99649.59;2753755;85;21015;-90
2022/09/08 07:40:51;;;;;;;20.57;14.18;;;;;;;23.90;77.01;99646.55;2752474;84;21066;-90
2022/09/08 07:45:02;;;;;;;21.50;15.60;;;;;;;24.08;76.46;99653.83;2744528;85;21379;-89
2022/09/08 07:49:30;;;;;;;16.27;13.28;;;;;;;24.07;75.30;99647.27;2760735;84;21110;-90
2022/09/08 07:54:00;;;;;;;21.30;13.05;;;;;;;24.30;76.21;99653.30;2741992;85;21094;-90
2022/09/08 07:58:10;;;;;;;20.20;14.43;;;;;;;24.57;75.39;99656.14;2750743;85;21068;-89
2022/09/08 08:02:34;;;;;;;18.62;12.63;;;;;;;24.65;73.70;99646.27;2736667;85;21091;-88
2022/09/08 08:06:44;;;;;;;17.00;14.55;;;;;;;24.66;74.70;99641.13;2718325;85;21033;-89
2022/09/08 08:11:03;;;;;;;16.67;12.53;;;;;;;24.78;74.11;99635.75;2718290;84;21066;-90
2022/09/08 08:15:28;;;;;;;20.50;13.48;;;;;;;24.84;73.24;99636.68;2763151;84;21027;-90
2022/09/08 08:19:52;;;;;;;14.73;13.08;;;;;;;24.63;73.27;99642.96;2734132;85;21007;-90
2022/09/08 08:24:20;;;;;;;18.87;14.25;;;;;;;24.62;75.05;99648.11;2757976;84;21028;-90
2022/09/08 08:28:22;;;;;;;16.10;14.43;;;;;;;24.60;73.80;99641.56;2740107;85;21031;-90
2022/09/08 08:32:32;;;;;;;15.23;12.73;;;;;;;24.61;74.40;99632.34;2771390;84;21374;-89
2022/09/08 08:36:39;;;;;;;21.52;14.05;;;;;;;24.76;73.81;99622.90;2735782;84;21083;-89
2022/09/08 08:40:56;;;;;;;17.32;13.45;;;;;;;24.85;72.93;99626.09;2755258;85;23231;-90
2022/09/08 08:45:39;;;;;;;17.85;13.00;;;;;;;24.83;73.32;99620.91;2761959;84;21340;-90
2022/09/08 08:50:10;;;;;;;19.55;14.35;;;;;;;24.91;72.35;99619.18;2755637;84;21035;-90
2022/09/08 08:54:56;;;;;;;16.57;11.60;;;;;;;24.90;71.60;99624.88;2710526;86;21070;-90
2022/09/08 08:59:21;;;;;;;15.83;11.68;;;;;;;25.01;72.22;99614.50;2680925;87;21075;-90
2022/09/08 09:03:34;;;;;;;18.63;13.80;;;;;;;25.18;71.17;99591.48;2696280;86;21141;-90
2022/09/08 09:08:26;;;;;;;16.23;10.95;;;;;;;25.18;71.17;99591.48;2620130;88;21441;-89
2022/09/08 09:12:42;;;;;;;14.40;10.05;;;;;;;25.43;72.18;99582.19;2546664;90;21091;-90
2022/09/08 09:17:06;;;;;;;16.40;11.33;;;;;;;25.69;70.09;99597.67;2532062;91;21138;-90
2022/09/08 09:21:53;;;;;;;11.83;10.18;;;;;;;25.90;70.01;99603.51;2635642;88;21449;-90
2022/09/08 09:26:19;;;;;;;11.00;9.13;;;;;;;26.03;69.78;99590.11;2611541;88;21170;-90
2022/09/08 09:30:44;;;;;;;26.42;9.93;;;;;;;26.26;69.69;99589.18;2621794;89;21086;-90
2022/09/08 09:35:20;;;;;;;12.95;9.18;;;;;;;26.35;68.15;99589.08;2618087;89;21227;-91
2022/09/08 09:39:51;;;;;;;13.50;10.85;;;;;;;26.48;69.34;99594.73;2639020;88;21105;-90
2022/09/08 09:44:21;;;;;;;11.00;9.83;;;;;;;26.69;68.00;99591.47;2701493;84;21119;-89
2022/09/08 09:48:59;;;;;;;12.00;9.88;;;;;;;26.96;68.96;99597.63;2721567;85;21031;-89
2022/09/08 09:53:05;;;;;;;9.25;8.18;;;;;;;26.87;65.99;99583.04;2740591;85;20992;-89
2022/09/08 09:57:35;;;;;;;9.20;8.30;;;;;;;26.85;67.03;99577.53;2740442;85;21007;-90
2022/09/08 10:02:17;;;;;;;12.05;9.00;;;;;;;26.73;66.44;99580.38;2764982;84;21590;-89
2022/09/08 10:06:32;;;;;;;11.05;8.58;;;;;;;26.71;67.16;99575.16;2708738;85;20988;-90
2022/09/08 10:10:54;;;;;;;12.90;10.18;;;;;;;26.74;66.71;99579.30;2765792;84;21047;-90
2022/09/08 10:15:31;;;;;;;20.80;10.20;;;;;;;26.74;67.07;99568.38;2642401;88;21206;-90
2022/09/08 10:20:17;;;;;;;10.25;9.03;;;;;;;26.74;66.38;99564.30;2654246;88;21556;-90
2022/09/08 10:24:31;;;;;;;;;;;;;;;26.71;67.52;99571.59;2653308;87;21061;-89
2022/09/08 10:29:15;;;;;;;13.08;10.08;;;;;;;26.75;68.48;99559.13;2606264;89;20140;-90
2022/09/08 10:33:38;;;;;;;14.87;10.60;;;;;;;26.73;68.25;99552.54;2606334;89;21056;-90
2022/09/08 10:37:48;;;;;;;16.25;10.65;;;;;;;26.69;68.28;99547.83;2646520;88;21173;-90
2022/09/08 10:42:23;;;;;;;12.53;9.60;;;;;;;26.76;68.70;99540.31;2664556;87;21623;-90
2022/09/08 10:46:33;;;;;;;14.33;11.75;;;;;;;26.75;69.28;99552.30;2640145;89;21131;-90
2022/09/08 10:50:40;;;;;;;12.73;11.45;;;;;;;26.74;69.98;99537.83;2730964;83;21015;-90
2022/09/08 10:54:50;;;;;;;16.37;11.57;;;;;;;26.78;69.89;99523.16;2637811;89;21743;-90
2022/09/08 10:59:31;;;;;;;12.55;11.12;;;;;;;26.89;70.47;99530.41;2628004;90;21027;-90
2022/09/08 11:03:46;;;;;;;14.98;13.45;;;;;;;26.91;70.69;99528.25;2629642;90;21038;-89
2022/09/08 11:08:37;;;;;;;18.77;11.78;;;;;;;27.07;70.61;99531.17;2628805;89;21158;-90
2022/09/08 11:13:12;;;;;;;13.55;12.15;;;;;;;27.11;70.67;99528.77;2620912;89;21042;-90
2022/09/08 11:17:24;;;;;;;16.75;12.00;;;;;;;27.13;71.14;99529.34;2617949;89;21034;-89
2022/09/08 11:21:31;;;;;;;12.47;11.15;;;;;;;27.21;73.42;99526.99;2612769;89;21144;-90
2022/09/08 11:26:13;;;;;;;13.83;10.72;;;;;;;27.29;71.55;99519.42;2608960;89;21143;-89
2022/09/08 11:30:23;;;;;;;12.18;10.18;;;;;;;27.31;71.63;99511.80;2638551;87;21043;-90
2022/09/08 11:34:51;;;;;;;27.17;12.53;;;;;;;27.31;70.16;99504.45;2739827;85;21063;-91
2022/09/08 11:39:13;;;;;;;13.98;12.58;;;;;;;27.38;70.49;99489.23;2693652;87;21047;-90
2022/09/08 11:43:56;;;;;;;16.00;13.13;;;;;;;27.42;70.33;99485.45;2688152;87;21105;-88
2022/09/08 11:48:25;;;;;;;14.53;12.75;;;;;;;27.57;70.03;99467.86;2716086;85;21145;-90
2022/09/08 11:52:53;;;;;;;21.00;14.20;;;;;;;27.78;71.10;99453.84;2714728;85;21069;-90
2022/09/08 11:57:33;;;;;;;11.00;9.83;;;;;;;28.39;69.11;99397.68;2721407;85;21629;-90
2022/09/08 12:01:55;;;;;;;43.48;15.32;;;;;;;28.82;66.04;99395.68;2724825;85;21125;-89
2022/09/08 12:06:26;;;;;;;13.48;9.03;;;;;;;28.82;66.04;99395.68;2696853;87;21145;-90
2022/09/08 12:10:33;;;;;;;9.70;7.83;;;;;;;28.85;63.95;99385.56;2622905;88;21121;-90
2022/09/08 12:15:01;;;;;;;9.93;8.08;;;;;;;28.82;63.43;99370.25;2630656;88;21108;-90
2022/09/08 12:19:29;;;;;;;11.78;8.13;;;;;;;28.85;62.99;99365.03;2662777;87;21067;-91
2022/09/08 12:24:00;;;;;;;13.68;7.95;;;;;;;28.85;63.28;99360.93;2660982;87;21027;-91
2022/09/08 12:28:39;;;;;;;10.75;9.73;;;;;;;28.75;62.85;99347.20;2583418;90;21121;-91
2022/09/08 12:33:20;;;;;;;38.73;29.67;;;;;;;28.53;63.93;99327.73;2594706;89;21138;-91
2022/09/08 12:37:57;;;;;;;29.65;25.02;;;;;;;28.35;64.05;99313.45;2546710;90;21118;-90
2022/09/08 12:42:04;;;;;;;25.20;19.42;;;;;;;28.16;63.85;99312.28;2484038;93;21111;-91
2022/09/08 12:46:35;;;;;;;15.58;9.63;;;;;;;28.03;65.37;99318.47;2616060;88;21140;-90
2022/09/08 12:51:08;;;;;;;16.62;10.82;;;;;;;27.78;64.00;99328.70;2503386;93;21094;-90
2022/09/08 12:55:33;;;;;;;12.05;10.58;;;;;;;27.70;65.64;99315.55;2582454;90;21112;-92
2022/09/08 13:00:08;;;;;;;13.98;12.68;;;;;;;27.49;65.53;99302.55;2556115;90;21091;-90
2022/09/08 13:04:40;;;;;;;9.80;8.68;;;;;;;27.33;66.11;99302.98;2551756;90;21054;-90
2022/09/08 13:09:23;;;;;;;10.58;9.53;;;;;;;27.23;66.07;99332.95;2577561;90;21334;-92
2022/09/08 13:13:45;;;;;;;12.75;10.45;;;;;;;27.08;66.66;99362.27;2565369;90;21066;-92
2022/09/08 13:17:58;;;;;;;15.78;10.85;;;;;;;27.01;67.09;99349.38;2606638;89;21559;-90
2022/09/08 13:22:36;;;;;;;13.22;9.63;;;;;;;26.89;68.03;99332.61;2601803;89;21017;-92
2022/09/08 13:27:15;;;;;;;14.87;11.22;;;;;;;26.75;69.02;99284.44;2721793;83;21062;-94
2022/09/08 13:31:39;;;;;;;15.38;12.10;;;;;;;26.54;72.18;99321.60;2772399;84;21332;-92
2022/09/08 13:36:03;;;;;;;13.93;9.40;;;;;;;26.35;74.61;99376.97;2756924;83;21070;-89
2022/09/08 13:40:33;;;;;;;18.30;9.28;;;;;;;25.68;80.67;99428.55;2770512;83;21092;-91
2022/09/08 13:45:05;;;;;;;14.90;7.12;;;;;;;24.77;85.81;99422.80;2774947;83;21078;-89
2022/09/08 13:49:27;;;;;;;12.73;7.85;;;;;;;23.72;90.05;99419.89;2752682;84;21607;-94
2022/09/08 13:54:05;;;;;;;16.90;7.70;;;;;;;22.97;96.19;99385.66;2753649;83;21013;-94
2022/09/08 13:58:27;;;;;;;18.17;5.37;;;;;;;22.13;100.00;99417.91;2756805;83;21076;-95
2022/09/08 14:02:56;;;;;;;6.35;4.00;;;;;;;21.31;100.00;99475.02;2776927;83;21062;-91
2022/09/08 14:07:20;;;;;;;7.33;4.67;;;;;;;20.24;100.00;99509.38;2763952;84;21102;-91
2022/09/08 14:11:45;;;;;;;6.20;5.37;;;;;;;19.81;100.00;99489.00;2731556;86;21062;-91
2022/09/08 14:16:08;;;;;;;7.83;5.90;;;;;;;19.97;100.00;99448.66;2693054;86;21161;-92
2022/09/08 14:20:24;;;;;;;9.33;5.33;;;;;;;20.08;100.00;99429.14;2742143;84;21110;-92
2022/09/08 14:24:55;;;;;;;8.65;5.65;;;;;;;20.25;100.00;99409.80;2742643;84;21626;-92
2022/09/08 14:29:10;;;;;;;5.85;5.17;;;;;;;20.38;100.00;99385.45;2642088;88;21236;-90
2022/09/08 14:33:33;;;;;;;6.20;4.37;;;;;;;20.52;100.00;99388.11;2641824;88;21078;-90
2022/09/08 14:37:58;;;;;;;8.25;4.60;;;;;;;20.58;100.00;99408.86;2626658;88;21140;-88
2022/09/08 14:42:17;;;;;;;10.30;5.12;;;;;;;20.57;100.00;99432.87;2618307;87;21045;-87
2022/09/08 14:46:44;;;;;;;8.40;4.35;;;;;;;20.69;100.00;99425.77;2610887;89;21077;-85
2022/09/08 14:51:09;;;;;;;3.72;3.42;;;;;;;20.76;100.00;99423.55;2629088;88;21112;-88
2022/09/08 14:55:33;;;;;;;6.17;3.72;;;;;;;20.65;100.00;99446.16;2620072;88;21037;-88
2022/09/08 14:59:55;;;;;;;7.10;5.53;;;;;;;20.46;100.00;99465.95;2624535;88;21526;-87
2022/09/08 15:04:04;;;;;;;9.65;6.55;;;;;;;20.34;100.00;99469.28;2636970;87;21027;-89
2022/09/08 15:08:21;;;;;;;9.38;7.00;;;;;;;20.19;100.00;99478.97;2708375;87;21034;-89
2022/09/08 15:12:35;;;;;;;11.20;6.33;;;;;;;20.18;100.00;99489.96;2685647;87;21054;-90
2022/09/08 15:17:07;;;;;;;8.93;5.87;;;;;;;20.10;100.00;99496.41;2729830;85;21007;-90
2022/09/08 15:21:20;;;;;;;8.13;6.90;;;;;;;20.00;100.00;99501.40;2729891;85;21083;-89
2022/09/08 15:25:32;;;;;;;12.35;8.35;;;;;;;20.02;100.00;99510.93;2725411;85;21059;-88
2022/09/08 15:29:55;;;;;;;8.83;7.08;;;;;;;20.11;100.00;99521.85;2732721;85;21129;-90
2022/09/08 15:34:05;;;;;;;10.48;7.53;;;;;;;20.29;100.00;99531.20;2733739;83;20987;-88
2022/09/08 15:38:28;;;;;;;12.13;9.20;;;;;;;20.44;100.00;99532.83;2726035;85;21035;-89
2022/09/08 15:43:03;;;;;;;10.55;7.50;;;;;;;20.52;100.00;99542.09;2737364;85;21098;-89
2022/09/08 15:47:25;;;;;;;10.32;6.95;;;;;;;20.63;100.00;99560.88;2747912;85;20987;-89
2022/09/08 15:52:03;;;;;;;9.53;7.05;;;;;;;20.72;100.00;99566.36;2742785;84;21114;-89
2022/09/08 15:56:16;;;;;;;8.98;8.15;;;;;;;20.71;100.00;99565.23;2714372;85;21542;-90
2022/09/08 16:00:38;;;;;;;9.93;6.72;;;;;;;20.72;100.00;99572.30;2754659;84;21130;-89
2022/09/08 16:05:06;;;;;;;7.22;4.83;;;;;;;20.65;100.00;99577.20;2761260;84;21067;-88
2022/09/08 16:09:17;;;;;;;7.28;5.22;;;;;;;20.59;100.00;99585.31;2737859;85;21035;-89
2022/09/08 16:13:23;;;;;;;8.25;6.08;;;;;;;20.58;100.00;99576.36;2736014;84;21066;-90
2022/09/08 16:17:24;;;;;;;13.45;6.75;;;;;;;20.56;100.00;99586.55;2783902;84;21819;-89
2022/09/08 16:21:27;;;;;;;7.58;6.87;;;;;;;20.32;100.00;99559.13;2777149;83;21038;-89
2022/09/08 16:25:43;;;;;;;11.70;7.53;;;;;;;20.49;100.00;99570.88;2788269;83;21105;-90
2022/09/08 16:30:25;;;;;;;8.48;6.97;;;;;;;20.57;100.00;99566.59;2780835;84;21011;-89
2022/09/08 16:34:32;;;;;;;6.97;5.75;;;;;;;20.63;100.00;99566.28;2765154;84;21102;-86
2022/09/08 16:39:03;;;;;;;11.22;7.05;;;;;;;20.72;100.00;99569.59;2787261;83;21342;-86
2022/09/08 16:43:18;;;;;;;11.12;7.78;;;;;;;20.82;100.00;99570.01;2768510;83;21057;-85
2022/09/08 16:47:24;;;;;;;9.77;7.87;;;;;;;21.02;100.00;99575.89;2765619;84;21030;-85
2022/09/08 16:51:50;;;;;;;15.38;9.38;;;;;;;21.10;100.00;99567.56;2761701;84;21608;-85
2022/09/08 16:56:18;;;;;;;11.45;8.45;;;;;;;20.89;100.00;99567.30;2762459;84;21708;-86
2022/09/08 17:00:23;;;;;;;9.43;7.55;;;;;;;20.85;100.00;99579.07;2762253;84;21141;-88
2022/09/08 17:04:30;;;;;;;6.92;5.42;;;;;;;20.82;100.00;99587.07;2762277;85;21039;-88
2022/09/08 17:08:42;;;;;;;7.45;5.78;;;;;;;20.79;100.00;99600.13;2773198;83;21029;-88
2022/09/08 17:12:44;;;;;;;8.85;6.30;;;;;;;20.61;100.00;99609.70;2721709;86;21636;-89
2022/09/08 17:17:22;;;;;;;6.67;5.90;;;;;;;20.37;100.00;99617.40;2759522;83;21059;-88
2022/09/08 17:21:50;;;;;;;8.70;6.33;;;;;;;20.34;100.00;99615.11;2783618;83;21046;-89
2022/09/08 17:26:05;;;;;;;9.68;6.05;;;;;;;20.37;100.00;99613.34;2766734;84;21150;-87
2022/09/08 17:30:23;;;;;;;7.37;6.53;;;;;;;20.44;100.00;99613.86;2683372;87;21067;-89
2022/09/08 17:34:39;;;;;;;5.60;5.10;;;;;;;20.47;100.00;99630.49;2682064;87;21103;-88
2022/09/08 17:38:55;;;;;;;6.17;5.58;;;;;;;20.49;100.00;99637.05;2685209;86;21558;-88
2022/09/08 17:43:04;;;;;;;;;;;;;;;20.43;100.00;99648.16;2666534;86;21055;-88
2022/09/08 17:47:50;;;;;;;6.05;5.55;;;;;;;20.53;100.00;99663.42;2697632;87;20144;-89
2022/09/08 17:52:26;;;;;;;7.08;5.65;;;;;;;20.60;100.00;99675.59;2700766;86;21059;-88
2022/09/08 17:56:45;;;;;;;6.08;5.58;;;;;;;20.77;100.00;99677.89;2703788;86;21580;-88
2022/09/08 18:00:55;;;;;;;7.05;6.20;;;;;;;20.72;100.00;99687.14;2697615;86;21049;-88
2022/09/08 18:05:11;;;;;;;11.00;8.20;;;;;;;20.61;100.00;99696.16;2698638;86;20994;-88
2022/09/08 18:09:51;;;;;;;16.30;8.13;;;;;;;20.58;100.00;99705.22;2752135;84;21074;-87
2022/09/08 18:13:56;;;;;;;12.30;9.10;;;;;;;20.59;100.00;99700.95;2754679;84;21006;-88
2022/09/08 18:18:24;;;;;;;13.85;12.10;;;;;;;20.61;100.00;99689.41;2689413;85;21026;-88
2022/09/08 18:22:40;;;;;;;11.20;9.40;;;;;;;20.68;100.00;99686.21;2642490;88;21095;-88
2022/09/08 18:27:19;;;;;;;10.28;7.97;;;;;;;20.78;100.00;99679.55;2615837;89;21082;-88
2022/09/08 18:32:10;;;;;;;10.32;6.53;;;;;;;20.82;100.00;99688.92;2673140;86;21072;-88
2022/09/08 18:36:49;;;;;;;7.37;5.50;;;;;;;20.92;100.00;99681.75;2664399;86;21107;-89
2022/09/08 18:40:56;;;;;;;10.82;6.85;;;;;;;20.96;100.00;99679.78;2668969;87;21103;-88
2022/09/08 18:45:05;;;;;;;7.62;5.78;;;;;;;20.94;100.00;99689.97;2680901;86;21084;-88
2022/09/08 18:49:17;;;;;;;9.23;6.87;;;;;;;21.02;100.00;99686.23;2681333;85;21122;-88
2022/09/08 18:54:05;;;;;;;9.88;8.08;;;;;;;20.98;100.00;99694.45;2659567;85;21050;-86
2022/09/08 18:58:18;;;;;;;12.93;6.90;;;;;;;20.85;100.00;99697.15;2685968;85;21066;-88
2022/09/08 19:02:37;;;;;;;11.63;9.03;;;;;;;20.75;100.00;99697.03;2686933;85;21073;-85
2022/09/08 19:06:50;;;;;;;10.65;8.70;;;;;;;20.70;100.00;99704.91;2682554;85;21042;-88
2022/09/08 19:10:52;;;;;;;8.25;7.20;;;;;;;20.67;100.00;99712.08;2612725;89;21120;-88
2022/09/08 19:14:58;;;;;;;8.78;7.87;;;;;;;20.65;100.00;99718.20;2695554;85;21180;-88
2022/09/08 19:19:25;;;;;;;8.18;7.28;;;;;;;20.70;100.00;99719.77;2733259;85;21552;-88
2022/09/08 19:23:33;;;;;;;8.88;7.70;;;;;;;20.73;100.00;99718.53;2761249;84;21858;-87
2022/09/08 19:28:11;;;;;;;11.22;7.10;;;;;;;20.73;100.00;99714.48;2686308;85;21077;-88
2022/09/08 19:32:27;;;;;;;7.65;6.35;;;;;;;20.69;100.00;99706.79;2695923;86;21067;-87
2022/09/08 19:36:51;;;;;;;10.75;8.85;;;;;;;20.69;100.00;99719.45;2695760;86;21127;-88
2022/09/08 19:41:04;;;;;;;11.15;7.30;;;;;;;20.53;100.00;99717.98;2713756;86;21667;-88
2022/09/08 19:45:33;;;;;;;9.05;6.30;;;;;;;20.39;100.00;99717.95;2702132;86;21085;-88
2022/09/08 19:50:01;;;;;;;8.63;7.12;;;;;;;20.20;100.00;99734.94;2693144;86;21009;-87